createdAt,value
2017-02-22T00:00:52.145Z,0
2017-02-22T00:01:52.141Z,0
2017-02-22T00:02:52.122Z,0
2017-02-22T00:03:51.696Z,0
2017-02-22T00:04:51.668Z,0
2017-02-22T00:05:52.050Z,0
2017-02-22T00:06:51.992Z,0
2017-02-22T00:07:52.012Z,0
2017-02-22T00:08:51.995Z,0
2017-02-22T00:09:51.991Z,0
2017-02-22T00:10:51.566Z,0
2017-02-22T00:11:51.925Z,0
2017-02-22T00:12:51.523Z,0
2017-02-22T00:13:51.484Z,0
2017-02-22T00:14:51.852Z,0
2017-02-22T00:15:51.839Z,0
2017-02-22T00:16:51.838Z,0
2017-02-22T00:17:51.822Z,0
2017-02-22T00:18:51.803Z,0
2017-02-22T00:19:51.798Z,0
2017-02-22T00:20:51.754Z,0
2017-02-22T00:21:51.731Z,0
2017-02-22T00:22:51.695Z,0
2017-02-22T00:23:51.700Z,0
2017-02-22T00:24:51.673Z,0
2017-02-22T00:25:51.669Z,0
2017-02-22T00:26:51.616Z,0
2017-02-22T00:27:51.618Z,0
2017-02-22T00:28:51.584Z,0
2017-02-22T00:29:51.591Z,0
2017-02-22T00:30:51.573Z,0
2017-02-22T00:31:51.547Z,0
2017-02-22T00:32:51.549Z,0
2017-02-22T00:33:51.486Z,0
2017-02-22T00:34:51.504Z,0
2017-02-22T00:35:51.079Z,0
2017-02-22T00:36:51.472Z,0
2017-02-22T00:37:51.445Z,0
2017-02-22T00:38:51.439Z,0
2017-02-22T00:39:51.410Z,0
2017-02-22T00:40:51.388Z,0
2017-02-22T00:41:51.338Z,0
2017-02-22T00:42:51.360Z,0
2017-02-22T00:43:51.310Z,0
2017-02-22T00:44:51.304Z,0
2017-02-22T00:45:51.257Z,0
2017-02-22T00:46:51.241Z,0
2017-02-22T00:47:51.254Z,0
2017-02-22T00:48:51.186Z,0
2017-02-22T00:49:51.172Z,0
2017-02-22T00:50:51.185Z,0
2017-02-22T00:51:51.146Z,0
2017-02-22T00:52:51.145Z,0
2017-02-22T00:53:50.717Z,0
2017-02-22T00:54:51.074Z,0
2017-02-22T00:55:51.105Z,0
2017-02-22T00:56:51.083Z,0
2017-02-22T00:57:51.059Z,0
2017-02-22T00:58:51.009Z,0
2017-02-22T00:59:51.032Z,0
2017-02-22T01:00:51.055Z,0
2017-02-22T01:01:50.597Z,0
2017-02-22T01:02:50.575Z,0
2017-02-22T01:03:50.933Z,0
2017-02-22T01:04:50.552Z,0
2017-02-22T01:05:50.114Z,0
2017-02-22T01:06:50.868Z,0
2017-02-22T01:07:50.465Z,0
2017-02-22T01:08:50.851Z,0
2017-02-22T01:09:50.806Z,0
2017-02-22T01:10:50.796Z,0
2017-02-22T01:11:50.810Z,0
2017-02-22T01:12:50.371Z,0
2017-02-22T01:13:50.750Z,0
2017-02-22T01:14:50.724Z,0
2017-02-22T01:15:50.694Z,0
2017-02-22T01:16:50.703Z,0
2017-02-22T01:17:50.659Z,0
2017-02-22T01:18:50.256Z,0
2017-02-22T01:19:50.225Z,0
2017-02-22T01:20:50.607Z,0
2017-02-22T01:21:50.217Z,0
2017-02-22T01:22:50.568Z,0
2017-02-22T01:23:50.530Z,0
2017-02-22T01:24:50.128Z,0
2017-02-22T01:25:50.517Z,0
2017-02-22T01:26:50.497Z,0
2017-02-22T01:27:50.467Z,0
2017-02-22T01:28:50.447Z,0
2017-02-22T01:29:50.447Z,0
2017-02-22T01:30:50.440Z,0
2017-02-22T01:31:50.398Z,0
2017-02-22T01:32:49.967Z,0
2017-02-22T01:33:49.987Z,0
2017-02-22T01:34:49.967Z,0
2017-02-22T01:35:50.319Z,0
2017-02-22T01:36:50.330Z,0
2017-02-22T01:37:50.277Z,0
2017-02-22T01:38:49.908Z,0
2017-02-22T01:39:50.238Z,0
2017-02-22T01:40:49.857Z,0
2017-02-22T01:41:50.185Z,0
2017-02-22T01:42:50.223Z,0
2017-02-22T01:43:50.152Z,0
2017-02-22T01:44:50.127Z,0
2017-02-22T01:45:50.135Z,0
2017-02-22T01:46:50.097Z,0
2017-02-22T01:47:50.097Z,0
2017-02-22T01:48:50.071Z,0
2017-02-22T01:49:49.681Z,0
2017-02-22T01:50:50.032Z,0
2017-02-22T01:51:49.985Z,0
2017-02-22T01:52:50.020Z,0
2017-02-22T01:53:49.207Z,0
2017-02-22T01:54:49.965Z,0
2017-02-22T01:55:49.942Z,0
2017-02-22T01:56:49.904Z,0
2017-02-22T01:57:49.906Z,0
2017-02-22T01:58:49.908Z,0
2017-02-22T01:59:49.106Z,0
2017-02-22T02:00:49.859Z,0
2017-02-22T02:01:49.847Z,0
2017-02-22T02:02:49.826Z,0
2017-02-22T02:03:48.990Z,0
2017-02-22T02:04:49.378Z,0
2017-02-22T02:05:49.814Z,0
2017-02-22T02:06:49.723Z,0
2017-02-22T02:07:49.308Z,0
2017-02-22T02:08:49.676Z,0
2017-02-22T02:09:49.651Z,0
2017-02-22T02:10:49.629Z,0
2017-02-22T02:11:49.617Z,0
2017-02-22T02:12:49.597Z,0
2017-02-22T02:13:49.590Z,0
2017-02-22T02:14:49.561Z,0
2017-02-22T02:15:49.157Z,0
2017-02-22T02:16:49.530Z,0
2017-02-22T02:17:49.481Z,0
2017-02-22T02:18:49.482Z,0
2017-02-22T02:19:49.077Z,0
2017-02-22T02:20:49.470Z,0
2017-02-22T02:21:49.421Z,0
2017-02-22T02:22:49.040Z,0
2017-02-22T02:23:48.980Z,0
2017-02-22T02:24:48.974Z,0
2017-02-22T02:25:48.982Z,0
2017-02-22T02:26:49.332Z,0
2017-02-22T02:27:49.305Z,0
2017-02-22T02:28:48.920Z,0
2017-02-22T02:29:48.877Z,0
2017-02-22T02:30:48.886Z,0
2017-02-22T02:31:48.844Z,0
2017-02-22T02:32:49.224Z,0
2017-02-22T02:33:49.193Z,0
2017-02-22T02:34:49.167Z,0
2017-02-22T02:35:49.157Z,0
2017-02-22T02:36:49.134Z,0
2017-02-22T02:37:49.107Z,0
2017-02-22T02:38:49.109Z,0
2017-02-22T02:39:49.081Z,0
2017-02-22T02:40:49.057Z,0
2017-02-22T02:41:49.056Z,0
2017-02-22T02:42:49.044Z,0
2017-02-22T02:43:49.025Z,0
2017-02-22T02:44:49.006Z,0
2017-02-22T02:45:48.977Z,0
2017-02-22T02:46:48.961Z,0
2017-02-22T02:47:48.915Z,0
2017-02-22T02:48:48.924Z,0
2017-02-22T02:49:48.881Z,0
2017-02-22T02:50:48.857Z,0
2017-02-22T02:51:48.846Z,0
2017-02-22T02:52:48.828Z,0
2017-02-22T02:53:48.788Z,0
2017-02-22T02:54:48.785Z,0
2017-02-22T02:55:48.797Z,0
2017-02-22T02:56:48.754Z,0
2017-02-22T02:57:48.708Z,0
2017-02-22T02:58:48.712Z,0
2017-02-22T02:59:48.289Z,0
2017-02-22T03:00:48.330Z,0
2017-02-22T03:01:48.641Z,0
2017-02-22T03:02:48.617Z,0
2017-02-22T03:03:48.194Z,0
2017-02-22T03:04:48.595Z,0
2017-02-22T03:05:48.176Z,0
2017-02-22T03:06:48.596Z,0
2017-02-22T03:07:48.519Z,0
2017-02-22T03:08:48.121Z,0
2017-02-22T03:09:48.502Z,0
2017-02-22T03:10:48.503Z,0
2017-02-22T03:11:48.453Z,0
2017-02-22T03:12:48.409Z,0
2017-02-22T03:13:48.033Z,0
2017-02-22T03:14:47.995Z,0
2017-02-22T03:15:48.377Z,0
2017-02-22T03:16:47.942Z,0
2017-02-22T03:17:47.970Z,0
2017-02-22T03:18:47.920Z,0
2017-02-22T03:19:47.906Z,0
2017-02-22T03:20:47.897Z,0
2017-02-22T03:21:47.874Z,0
2017-02-22T03:22:47.865Z,0
2017-02-22T03:23:48.259Z,0
2017-02-22T03:24:48.231Z,0
2017-02-22T03:25:48.167Z,0
2017-02-22T03:26:48.122Z,0
2017-02-22T03:27:48.121Z,0
2017-02-22T03:28:48.106Z,0
2017-02-22T03:29:48.093Z,0
2017-02-22T03:30:48.073Z,0
2017-02-22T03:31:48.081Z,0
2017-02-22T03:32:48.040Z,0
2017-02-22T03:33:48.017Z,0
2017-02-22T03:34:48.016Z,0
2017-02-22T03:35:48.015Z,0
2017-02-22T03:36:47.951Z,0
2017-02-22T03:37:47.966Z,0
2017-02-22T03:38:47.902Z,0
2017-02-22T03:39:47.885Z,0
2017-02-22T03:40:47.874Z,0
2017-02-22T03:41:47.871Z,0
2017-02-22T03:42:47.833Z,0
2017-02-22T03:43:47.830Z,0
2017-02-22T03:44:47.808Z,0
2017-02-22T03:45:47.802Z,0
2017-02-22T03:46:47.745Z,0
2017-02-22T03:47:47.765Z,0
2017-02-22T03:48:47.725Z,0
2017-02-22T03:49:47.678Z,0
2017-02-22T03:50:47.671Z,0
2017-02-22T03:51:47.670Z,0
2017-02-22T03:52:47.637Z,0
2017-02-22T03:53:47.627Z,0
2017-02-22T03:54:47.594Z,0
2017-02-22T03:55:47.225Z,0
2017-02-22T03:56:47.560Z,0
2017-02-22T03:57:47.557Z,0
2017-02-22T03:58:47.508Z,0
2017-02-22T03:59:47.490Z,0
2017-02-22T04:00:47.506Z,0
2017-02-22T04:01:47.487Z,0
2017-02-22T04:02:47.431Z,0
2017-02-22T04:03:47.424Z,0
2017-02-22T04:04:47.010Z,0
2017-02-22T04:05:47.383Z,0
2017-02-22T04:06:47.365Z,0
2017-02-22T04:07:47.342Z,0
2017-02-22T04:08:47.347Z,0
2017-02-22T04:09:46.931Z,0
2017-02-22T04:10:47.293Z,0
2017-02-22T04:11:47.268Z,0
2017-02-22T04:12:47.237Z,0
2017-02-22T04:13:47.267Z,0
2017-02-22T04:14:47.189Z,0
2017-02-22T04:15:47.227Z,0
2017-02-22T04:16:47.162Z,0
2017-02-22T04:17:47.186Z,0
2017-02-22T04:18:47.144Z,0
2017-02-22T04:19:47.138Z,0
2017-02-22T04:20:47.108Z,0
2017-02-22T04:21:47.075Z,0
2017-02-22T04:22:47.025Z,0
2017-02-22T04:23:47.039Z,0
2017-02-22T04:24:47.049Z,0
2017-02-22T04:25:46.976Z,0
2017-02-22T04:26:46.983Z,0
2017-02-22T04:27:46.962Z,0
2017-02-22T04:28:46.941Z,0
2017-02-22T04:29:46.930Z,0
2017-02-22T04:30:46.870Z,0
2017-02-22T04:31:46.867Z,0
2017-02-22T04:32:46.848Z,0
2017-02-22T04:33:46.849Z,0
2017-02-22T04:34:46.436Z,0
2017-02-22T04:35:46.412Z,0
2017-02-22T04:36:46.805Z,0
2017-02-22T04:37:46.763Z,0
2017-02-22T04:38:46.754Z,0
2017-02-22T04:39:46.723Z,0
2017-02-22T04:40:46.707Z,0
2017-02-22T04:41:46.685Z,0
2017-02-22T04:42:46.713Z,0
2017-02-22T04:43:46.666Z,0
2017-02-22T04:44:46.607Z,0
2017-02-22T04:45:46.589Z,0
2017-02-22T04:46:46.585Z,0
2017-02-22T04:47:46.565Z,0
2017-02-22T04:48:46.577Z,0
2017-02-22T04:49:46.533Z,0
2017-02-22T04:50:46.521Z,0
2017-02-22T04:51:46.511Z,0
2017-02-22T04:52:46.497Z,0
2017-02-22T04:53:46.455Z,0
2017-02-22T04:54:46.412Z,0
2017-02-22T04:55:46.412Z,0
2017-02-22T04:56:46.384Z,0
2017-02-22T04:57:46.392Z,0
2017-02-22T04:58:46.372Z,0
2017-02-22T04:59:46.340Z,0
2017-02-22T05:00:46.327Z,0
2017-02-22T05:01:46.286Z,0
2017-02-22T05:02:46.310Z,0
2017-02-22T05:03:46.260Z,0
2017-02-22T05:04:46.250Z,0
2017-02-22T05:05:46.259Z,0
2017-02-22T05:06:46.208Z,0
2017-02-22T05:07:46.161Z,0
2017-02-22T05:08:46.168Z,0
2017-02-22T05:09:46.174Z,0
2017-02-22T05:10:46.110Z,0
2017-02-22T05:11:46.105Z,0
2017-02-22T05:12:46.080Z,0
2017-02-22T05:13:46.117Z,0
2017-02-22T05:14:46.033Z,0
2017-02-22T05:15:46.024Z,0
2017-02-22T05:16:46.006Z,0
2017-02-22T05:17:46.005Z,0
2017-02-22T05:18:45.949Z,0
2017-02-22T05:19:45.916Z,0
2017-02-22T05:20:45.941Z,0
2017-02-22T05:21:45.928Z,0
2017-02-22T05:22:45.878Z,0
2017-02-22T05:23:45.896Z,0
2017-02-22T05:24:45.860Z,0
2017-02-22T05:25:45.838Z,0
2017-02-22T05:26:45.798Z,0
2017-02-22T05:27:45.407Z,0
2017-02-22T05:28:45.739Z,0
2017-02-22T05:29:45.750Z,0
2017-02-22T05:30:45.721Z,0
2017-02-22T05:31:45.337Z,0
2017-02-22T05:32:45.304Z,0
2017-02-22T05:33:45.673Z,0
2017-02-22T05:34:45.282Z,0
2017-02-22T05:35:45.642Z,0
2017-02-22T05:36:45.595Z,0
2017-02-22T05:37:45.586Z,0
2017-02-22T05:38:45.567Z,0
2017-02-22T05:39:45.582Z,0
2017-02-22T05:40:45.548Z,0
2017-02-22T05:41:45.503Z,0
2017-02-22T05:42:45.503Z,0
2017-02-22T05:43:45.474Z,0
2017-02-22T05:44:45.490Z,0
2017-02-22T05:45:45.415Z,0
2017-02-22T05:46:45.399Z,0
2017-02-22T05:47:45.390Z,0
2017-02-22T05:48:45.400Z,0
2017-02-22T05:49:45.343Z,0
2017-02-22T05:50:44.967Z,0
2017-02-22T05:51:45.299Z,0
2017-02-22T05:52:45.317Z,0
2017-02-22T05:53:45.264Z,0
2017-02-22T05:54:45.250Z,0
2017-02-22T05:55:45.216Z,0
2017-02-22T05:56:45.233Z,0
2017-02-22T05:57:45.194Z,0
2017-02-22T05:58:45.171Z,0
2017-02-22T05:59:45.147Z,0
2017-02-22T06:00:45.147Z,5
2017-02-22T06:01:45.106Z,5
2017-02-22T06:02:45.085Z,5
2017-02-22T06:03:45.090Z,5
2017-02-22T06:04:45.070Z,5
2017-02-22T06:05:45.048Z,5
2017-02-22T06:06:45.014Z,5
2017-02-22T06:07:45.011Z,10
2017-02-22T06:08:44.989Z,10
2017-02-22T06:09:44.972Z,10
2017-02-22T06:10:44.963Z,10
2017-02-22T06:11:44.938Z,15
2017-02-22T06:12:44.906Z,15
2017-02-22T06:13:44.855Z,15
2017-02-22T06:14:44.482Z,15
2017-02-22T06:15:44.831Z,20
2017-02-22T06:16:44.840Z,20
2017-02-22T06:17:44.844Z,25
2017-02-22T06:18:44.810Z,25
2017-02-22T06:19:44.753Z,25
2017-02-22T06:20:44.770Z,30
2017-02-22T06:21:44.733Z,35
2017-02-22T06:22:44.707Z,35
2017-02-22T06:23:44.674Z,40
2017-02-22T06:24:44.655Z,45
2017-02-22T06:25:44.672Z,45
2017-02-22T06:26:44.623Z,50
2017-02-22T06:27:44.621Z,60
2017-02-22T06:28:44.573Z,60
2017-02-22T06:29:44.572Z,60
2017-02-22T06:30:44.553Z,60
2017-02-22T06:31:44.536Z,60
2017-02-22T06:32:44.499Z,60
2017-02-22T06:33:44.489Z,65
2017-02-22T06:34:44.443Z,70
2017-02-22T06:35:44.486Z,70
2017-02-22T06:36:44.398Z,80
2017-02-22T06:37:44.453Z,80
2017-02-22T06:38:44.419Z,80
2017-02-22T06:39:44.393Z,90
2017-02-22T06:40:44.343Z,100
2017-02-22T06:41:44.308Z,100
2017-02-22T06:42:44.314Z,105
2017-02-22T06:43:44.262Z,120
2017-02-22T06:44:44.273Z,120
2017-02-22T06:45:44.244Z,135
2017-02-22T06:46:44.216Z,140
2017-02-22T06:47:44.212Z,145
2017-02-22T06:48:44.171Z,160
2017-02-22T06:49:44.155Z,165
2017-02-22T06:50:44.166Z,170
2017-02-22T06:51:44.127Z,190
2017-02-22T06:52:44.117Z,210
2017-02-22T06:53:43.715Z,220
2017-02-22T06:54:43.671Z,220
2017-02-22T06:55:44.031Z,225
2017-02-22T06:56:44.048Z,220
2017-02-22T06:57:44.004Z,215
2017-02-22T06:58:44.005Z,220
2017-02-22T06:59:43.953Z,230
2017-02-22T07:00:43.583Z,235
2017-02-22T07:01:43.566Z,250
2017-02-22T07:02:43.921Z,255
2017-02-22T07:03:43.534Z,270
2017-02-22T07:04:43.905Z,290
2017-02-22T07:05:43.905Z,315
2017-02-22T07:06:43.821Z,350
2017-02-22T07:07:43.809Z,380
2017-02-22T07:08:43.409Z,390
2017-02-22T07:09:43.757Z,420
2017-02-22T07:10:43.784Z,420
2017-02-22T07:11:43.739Z,425
2017-02-22T07:12:43.725Z,390
2017-02-22T07:13:43.708Z,360
2017-02-22T07:14:43.697Z,340
2017-02-22T07:15:42.912Z,340
2017-02-22T07:16:43.631Z,370
2017-02-22T07:17:43.633Z,425
2017-02-22T07:18:43.612Z,495
2017-02-22T07:19:43.588Z,555
2017-02-22T07:20:43.544Z,580
2017-02-22T07:21:43.547Z,550
2017-02-22T07:22:43.529Z,530
2017-02-22T07:23:43.491Z,520
2017-02-22T07:24:43.515Z,525
2017-02-22T07:25:43.471Z,505
2017-02-22T07:26:43.456Z,485
2017-02-22T07:27:43.412Z,420
2017-02-22T07:28:43.385Z,370
2017-02-22T07:29:43.387Z,360
2017-02-22T07:30:42.972Z,390
2017-02-22T07:31:42.977Z,380
2017-02-22T07:32:42.958Z,405
2017-02-22T07:33:43.310Z,450
2017-02-22T07:34:43.294Z,615
2017-02-22T07:35:43.237Z,1105
2017-02-22T07:36:43.249Z,1050
2017-02-22T07:37:43.238Z,1070
2017-02-22T07:38:43.227Z,795
2017-02-22T07:39:43.176Z,1160
2017-02-22T07:40:43.182Z,790
2017-02-22T07:41:43.157Z,1360
2017-02-22T07:42:43.135Z,1055
2017-02-22T07:43:42.741Z,960
2017-02-22T07:44:43.116Z,1280
2017-02-22T07:45:43.086Z,1550
2017-02-22T07:46:43.081Z,935
2017-02-22T07:47:43.061Z,970
2017-02-22T07:48:43.031Z,905
2017-02-22T07:49:43.027Z,1070
2017-02-22T07:50:42.979Z,835
2017-02-22T07:51:42.972Z,830
2017-02-22T07:52:42.574Z,850
2017-02-22T07:53:42.549Z,775
2017-02-22T07:54:42.501Z,785
2017-02-22T07:55:42.509Z,780
2017-02-22T07:56:42.877Z,895
2017-02-22T07:57:42.453Z,895
2017-02-22T07:58:42.830Z,755
2017-02-22T07:59:42.810Z,805
2017-02-22T08:00:42.392Z,890
2017-02-22T08:01:42.371Z,810
2017-02-22T08:02:42.765Z,790
2017-02-22T08:03:41.998Z,1055
2017-02-22T08:04:42.351Z,825
2017-02-22T08:05:42.318Z,780
2017-02-22T08:06:42.283Z,825
2017-02-22T08:07:42.249Z,650
2017-02-22T08:08:42.264Z,735
2017-02-22T08:09:42.254Z,1165
2017-02-22T08:10:42.212Z,1020
2017-02-22T08:11:42.203Z,830
2017-02-22T08:12:42.535Z,1370
2017-02-22T08:13:42.548Z,970
2017-02-22T08:14:42.549Z,1235
2017-02-22T08:15:42.522Z,765
2017-02-22T08:16:42.505Z,1785
2017-02-22T08:17:42.482Z,1855
2017-02-22T08:18:42.461Z,890
2017-02-22T08:19:42.438Z,1510
2017-02-22T08:20:42.415Z,1985
2017-02-22T08:21:42.406Z,1770
2017-02-22T08:22:42.390Z,1055
2017-02-22T08:23:42.354Z,930
2017-02-22T08:24:42.333Z,1285
2017-02-22T08:25:42.330Z,2175
2017-02-22T08:26:42.303Z,1065
2017-02-22T08:27:42.285Z,1215
2017-02-22T08:28:42.268Z,1625
2017-02-22T08:29:42.251Z,885
2017-02-22T08:30:41.852Z,1560
2017-02-22T08:31:42.217Z,1615
2017-02-22T08:32:42.174Z,1860
2017-02-22T08:33:41.802Z,1135
2017-02-22T08:34:42.143Z,1605
2017-02-22T08:35:42.138Z,1735
2017-02-22T08:36:42.116Z,1870
2017-02-22T08:37:42.098Z,1830
2017-02-22T08:38:42.147Z,2210
2017-02-22T08:39:42.037Z,1060
2017-02-22T08:40:42.081Z,1360
2017-02-22T08:41:42.046Z,2260
2017-02-22T08:42:41.607Z,610
2017-02-22T08:43:41.226Z,2150
2017-02-22T08:44:41.955Z,2505
2017-02-22T08:45:41.946Z,1115
2017-02-22T08:46:41.916Z,1850
2017-02-22T08:47:41.906Z,1550
2017-02-22T08:48:41.904Z,795
2017-02-22T08:49:41.898Z,1770
2017-02-22T08:50:41.859Z,1695
2017-02-22T08:51:41.877Z,2035
2017-02-22T08:52:41.823Z,2205
2017-02-22T08:53:41.830Z,2805
2017-02-22T08:54:41.786Z,1535
2017-02-22T08:55:41.768Z,2010
2017-02-22T08:56:41.769Z,970
2017-02-22T08:57:41.760Z,2180
2017-02-22T08:58:41.713Z,2075
2017-02-22T08:59:41.714Z,2150
2017-02-22T09:00:41.667Z,2185
2017-02-22T09:01:41.685Z,2300
2017-02-22T09:02:41.648Z,1820
2017-02-22T09:03:41.646Z,1995
2017-02-22T09:04:41.598Z,1850
2017-02-22T09:05:41.579Z,1735
2017-02-22T09:06:41.588Z,895
2017-02-22T09:07:41.566Z,1890
2017-02-22T09:08:41.538Z,2475
2017-02-22T09:09:41.525Z,2500
2017-02-22T09:10:41.486Z,2350
2017-02-22T09:11:41.499Z,2585
2017-02-22T09:12:41.480Z,2515
2017-02-22T09:13:41.424Z,2610
2017-02-22T09:14:41.430Z,2670
2017-02-22T09:15:41.403Z,2715
2017-02-22T09:16:41.379Z,2290
2017-02-22T09:17:41.389Z,1995
2017-02-22T09:18:41.374Z,1805
2017-02-22T09:19:41.333Z,1780
2017-02-22T09:20:41.308Z,1765
2017-02-22T09:21:41.300Z,1810
2017-02-22T09:22:41.288Z,2480
2017-02-22T09:23:40.884Z,2750
2017-02-22T09:24:41.255Z,2540
2017-02-22T09:25:41.230Z,2455
2017-02-22T09:26:41.220Z,2480
2017-02-22T09:27:41.212Z,2535
2017-02-22T09:28:41.163Z,2440
2017-02-22T09:29:41.157Z,2185
2017-02-22T09:30:41.145Z,1775
2017-02-22T09:31:41.097Z,1615
2017-02-22T09:32:41.117Z,1700
2017-02-22T09:33:41.075Z,2485
2017-02-22T09:34:41.101Z,2775
2017-02-22T09:35:41.076Z,2115
2017-02-22T09:36:41.025Z,1830
2017-02-22T09:37:41.000Z,1865
2017-02-22T09:38:40.970Z,2475
2017-02-22T09:39:40.976Z,3135
2017-02-22T09:40:40.938Z,3225
2017-02-22T09:41:40.940Z,2695
2017-02-22T09:42:40.957Z,2560
2017-02-22T09:43:40.918Z,2535
2017-02-22T09:44:40.900Z,2420
2017-02-22T09:45:40.850Z,2330
2017-02-22T09:46:40.857Z,2470
2017-02-22T09:47:40.836Z,2430
2017-02-22T09:48:40.840Z,2490
2017-02-22T09:49:40.808Z,2670
2017-02-22T09:50:40.768Z,2445
2017-02-22T09:51:40.766Z,2365
2017-02-22T09:52:40.714Z,2450
2017-02-22T09:53:40.773Z,2160
2017-02-22T09:54:40.696Z,2440
2017-02-22T09:55:40.711Z,2555
2017-02-22T09:56:40.677Z,2505
2017-02-22T09:57:40.658Z,2420
2017-02-22T09:58:40.608Z,2430
2017-02-22T09:59:40.199Z,2965
2017-02-22T10:00:40.591Z,2870
2017-02-22T10:01:40.613Z,2095
2017-02-22T10:02:40.570Z,1630
2017-02-22T10:03:40.518Z,2160
2017-02-22T10:04:40.535Z,2490
2017-02-22T10:05:40.521Z,2650
2017-02-22T10:06:40.481Z,2685
2017-02-22T10:07:40.498Z,2660
2017-02-22T10:08:40.473Z,2650
2017-02-22T10:09:40.467Z,3095
2017-02-22T10:10:40.044Z,3030
2017-02-22T10:11:40.392Z,2920
2017-02-22T10:12:40.048Z,3085
2017-02-22T10:13:40.364Z,2975
2017-02-22T10:14:40.358Z,2740
2017-02-22T10:15:40.349Z,2880
2017-02-22T10:16:40.375Z,3525
2017-02-22T10:17:39.890Z,2550
2017-02-22T10:18:40.266Z,2775
2017-02-22T10:19:40.282Z,3255
2017-02-22T10:20:40.235Z,2120
2017-02-22T10:21:40.197Z,2170
2017-02-22T10:22:40.215Z,2250
2017-02-22T10:23:40.153Z,1715
2017-02-22T10:24:40.152Z,2740
2017-02-22T10:25:40.139Z,2605
2017-02-22T10:26:40.156Z,2750
2017-02-22T10:27:40.155Z,2740
2017-02-22T10:28:40.100Z,3215
2017-02-22T10:29:40.090Z,1940
2017-02-22T10:30:40.061Z,4040
2017-02-22T10:31:40.036Z,2110
2017-02-22T10:32:40.042Z,1865
2017-02-22T10:33:40.007Z,3670
2017-02-22T10:34:39.980Z,3830
2017-02-22T10:35:39.965Z,3820
2017-02-22T10:36:39.943Z,3905
2017-02-22T10:37:39.913Z,2540
2017-02-22T10:38:39.915Z,2820
2017-02-22T10:39:39.890Z,3930
2017-02-22T10:40:39.884Z,3985
2017-02-22T10:41:39.871Z,1975
2017-02-22T10:42:39.854Z,2890
2017-02-22T10:43:39.831Z,3705
2017-02-22T10:44:39.813Z,3325
2017-02-22T10:45:39.792Z,2180
2017-02-22T10:46:39.767Z,2965
2017-02-22T10:47:39.765Z,2755
2017-02-22T10:48:39.736Z,2695
2017-02-22T10:49:39.721Z,2685
2017-02-22T10:50:39.748Z,2885
2017-02-22T10:51:39.674Z,2830
2017-02-22T10:52:39.674Z,2990
2017-02-22T10:53:39.273Z,3235
2017-02-22T10:54:39.671Z,3085
2017-02-22T10:55:39.622Z,2725
2017-02-22T10:56:39.598Z,2715
2017-02-22T10:57:39.601Z,2820
2017-02-22T10:58:39.588Z,2920
2017-02-22T10:59:39.180Z,2880
2017-02-22T11:00:39.511Z,2835
2017-02-22T11:01:39.504Z,2740
2017-02-22T11:02:39.483Z,2755
2017-02-22T11:03:39.470Z,2865
2017-02-22T11:04:39.447Z,2915
2017-02-22T11:05:39.451Z,2925
2017-02-22T11:06:39.401Z,2990
2017-02-22T11:07:39.430Z,3005
2017-02-22T11:08:39.422Z,3245
2017-02-22T11:09:39.382Z,2825
2017-02-22T11:10:39.367Z,2645
2017-02-22T11:11:39.359Z,2615
2017-02-22T11:12:39.310Z,2615
2017-02-22T11:13:39.334Z,2980
2017-02-22T11:14:39.313Z,2110
2017-02-22T11:15:39.272Z,1885
2017-02-22T11:16:39.281Z,2065
2017-02-22T11:17:39.260Z,3030
2017-02-22T11:18:39.220Z,3025
2017-02-22T11:19:39.175Z,2660
2017-02-22T11:20:39.188Z,2920
2017-02-22T11:21:39.177Z,3035
2017-02-22T11:22:39.136Z,3220
2017-02-22T11:23:39.140Z,2970
2017-02-22T11:24:39.127Z,2765
2017-02-22T11:25:39.107Z,2040
2017-02-22T11:26:39.074Z,2680
2017-02-22T11:27:39.088Z,2730
2017-02-22T11:28:39.020Z,2370
2017-02-22T11:29:39.014Z,2535
2017-02-22T11:30:38.645Z,1895
2017-02-22T11:31:39.006Z,2605
2017-02-22T11:32:38.967Z,2380
2017-02-22T11:33:38.951Z,2845
2017-02-22T11:34:38.931Z,2320
2017-02-22T11:35:38.939Z,2225
2017-02-22T11:36:38.910Z,3000
2017-02-22T11:37:38.870Z,2730
2017-02-22T11:38:38.846Z,2810
2017-02-22T11:39:38.847Z,2860
2017-02-22T11:40:38.843Z,2725
2017-02-22T11:41:38.422Z,2875
2017-02-22T11:42:38.426Z,2910
2017-02-22T11:43:38.757Z,2805
2017-02-22T11:44:38.764Z,2835
2017-02-22T11:45:38.362Z,2975
2017-02-22T11:46:38.715Z,2210
2017-02-22T11:47:37.944Z,2040
2017-02-22T11:48:38.336Z,2990
2017-02-22T11:49:38.664Z,2375
2017-02-22T11:50:38.640Z,1675
2017-02-22T11:51:38.657Z,2835
2017-02-22T11:52:38.666Z,2795
2017-02-22T11:53:38.243Z,2860
2017-02-22T11:54:38.196Z,3060
2017-02-22T11:55:38.567Z,2845
2017-02-22T11:56:38.550Z,2655
2017-02-22T11:57:38.516Z,2840
2017-02-22T11:58:38.486Z,2900
2017-02-22T11:59:38.498Z,2685
2017-02-22T12:00:38.079Z,2545
2017-02-22T12:01:38.438Z,2315
2017-02-22T12:02:38.080Z,3070
2017-02-22T12:03:38.043Z,3700
2017-02-22T12:04:38.046Z,3405
2017-02-22T12:05:38.408Z,1565
2017-02-22T12:06:37.977Z,945
2017-02-22T12:07:37.967Z,1670
2017-02-22T12:08:38.356Z,2795
2017-02-22T12:09:38.319Z,3015
2017-02-22T12:10:37.886Z,3455
2017-02-22T12:11:38.296Z,3170
2017-02-22T12:12:37.890Z,2620
2017-02-22T12:13:38.226Z,2420
2017-02-22T12:14:38.231Z,2430
2017-02-22T12:15:38.181Z,2325
2017-02-22T12:16:38.188Z,2330
2017-02-22T12:17:38.167Z,2375
2017-02-22T12:18:38.147Z,2830
2017-02-22T12:19:38.151Z,3125
2017-02-22T12:20:38.135Z,3565
2017-02-22T12:21:37.740Z,3915
2017-02-22T12:22:37.727Z,2085
2017-02-22T12:23:38.087Z,3865
2017-02-22T12:24:38.058Z,3215
2017-02-22T12:25:38.038Z,2910
2017-02-22T12:26:38.024Z,3070
2017-02-22T12:27:38.022Z,3170
2017-02-22T12:28:38.003Z,3160
2017-02-22T12:29:38.011Z,3330
2017-02-22T12:30:37.953Z,3235
2017-02-22T12:31:37.952Z,2915
2017-02-22T12:32:37.936Z,1670
2017-02-22T12:33:37.922Z,1480
2017-02-22T12:34:37.940Z,1800
2017-02-22T12:35:37.872Z,3855
2017-02-22T12:36:37.832Z,2920
2017-02-22T12:37:37.841Z,2335
2017-02-22T12:38:37.812Z,2555
2017-02-22T12:39:37.833Z,2460
2017-02-22T12:40:37.789Z,2530
2017-02-22T12:41:37.759Z,3085
2017-02-22T12:42:37.769Z,3270
2017-02-22T12:43:37.765Z,3045
2017-02-22T12:44:37.723Z,3305
2017-02-22T12:45:37.700Z,2820
2017-02-22T12:46:37.737Z,1725
2017-02-22T12:47:37.675Z,2190
2017-02-22T12:48:37.641Z,2085
2017-02-22T12:49:37.639Z,1630
2017-02-22T12:50:37.614Z,1905
2017-02-22T12:51:37.602Z,2060
2017-02-22T12:52:37.227Z,1670
2017-02-22T12:53:37.571Z,1515
2017-02-22T12:54:37.168Z,1445
2017-02-22T12:55:37.556Z,1495
2017-02-22T12:56:37.115Z,1545
2017-02-22T12:57:37.134Z,1585
2017-02-22T12:58:37.493Z,1545
2017-02-22T12:59:37.459Z,1525
2017-02-22T13:00:37.430Z,1515
2017-02-22T13:01:37.461Z,1510
2017-02-22T13:02:37.401Z,1495
2017-02-22T13:03:37.412Z,1490
2017-02-22T13:04:37.405Z,1520
2017-02-22T13:05:37.364Z,1515
2017-02-22T13:06:37.364Z,1470
2017-02-22T13:07:37.325Z,1465
2017-02-22T13:08:37.335Z,1500
2017-02-22T13:09:37.301Z,1495
2017-02-22T13:10:37.309Z,1520
2017-02-22T13:11:36.884Z,1430
2017-02-22T13:12:37.243Z,1300
2017-02-22T13:13:37.222Z,1255
2017-02-22T13:14:37.209Z,1190
2017-02-22T13:15:37.212Z,1175
2017-02-22T13:16:36.782Z,1180
2017-02-22T13:17:37.130Z,1155
2017-02-22T13:18:37.140Z,1140
2017-02-22T13:19:37.098Z,1135
2017-02-22T13:20:37.142Z,1140
2017-02-22T13:21:37.112Z,1165
2017-02-22T13:22:37.075Z,1185
2017-02-22T13:23:37.067Z,1115
2017-02-22T13:24:37.129Z,1035
2017-02-22T13:25:37.032Z,1015
2017-02-22T13:26:37.003Z,1060
2017-02-22T13:27:36.970Z,1070
2017-02-22T13:28:36.983Z,1055
2017-02-22T13:29:36.951Z,1010
2017-02-22T13:30:36.944Z,950
2017-02-22T13:31:36.931Z,890
2017-02-22T13:32:36.911Z,875
2017-02-22T13:33:36.869Z,950
2017-02-22T13:34:36.863Z,970
2017-02-22T13:35:36.844Z,875
2017-02-22T13:36:36.831Z,875
2017-02-22T13:37:36.788Z,940
2017-02-22T13:38:36.786Z,950
2017-02-22T13:39:36.808Z,920
2017-02-22T13:40:36.764Z,925
2017-02-22T13:41:36.733Z,895
2017-02-22T13:42:36.333Z,890
2017-02-22T13:43:36.745Z,900
2017-02-22T13:44:36.736Z,875
2017-02-22T13:45:36.698Z,855
2017-02-22T13:46:36.651Z,850
2017-02-22T13:47:36.612Z,850
2017-02-22T13:48:36.616Z,855
2017-02-22T13:49:36.589Z,890
2017-02-22T13:50:36.562Z,910
2017-02-22T13:51:36.183Z,900
2017-02-22T13:52:36.539Z,890
2017-02-22T13:53:36.504Z,855
2017-02-22T13:54:36.106Z,790
2017-02-22T13:55:36.483Z,770
2017-02-22T13:56:36.443Z,790
2017-02-22T13:57:36.430Z,815
2017-02-22T13:58:36.412Z,820
2017-02-22T13:59:36.399Z,790
2017-02-22T14:00:36.372Z,785
2017-02-22T14:01:36.388Z,800